Time;durP1;ratioP1;P1;durP2;ratioP2;P2;SDS_P1;SDS_P2;PMS_P1;PMS_P2;Temp;Humidity;BMP_temperature;BMP_pressure;BME280_temperature;BME280_humidity;BME280_pressure;Samples;Min_cycle;Max_cycle;Signal;HPM_P1;HPM_P2
2022/01/08 00:01:29;;;;;;;19.27;7.70;;;;;;;3.13;43.57;98919.59;4493576;31;20100;-82
2022/01/08 00:03:54;;;;;;;19.92;8.60;;;;;;;3.09;43.33;98913.59;4498745;31;20107;-82
2022/01/08 00:06:20;;;;;;;18.40;8.60;;;;;;;3.21;43.01;98915.06;4475646;31;20117;-81
2022/01/08 00:08:45;;;;;;;17.98;7.68;;;;;;;3.25;42.77;98910.66;4498542;31;20119;-80
2022/01/08 00:11:14;;;;;;;18.48;6.97;;;;;;;3.24;43.12;98920.19;4494491;31;20132;-80
2022/01/08 00:13:40;;;;;;;20.83;8.23;;;;;;;3.23;43.71;98912.44;4492571;31;20100;-81
2022/01/08 00:16:06;;;;;;;17.02;7.35;;;;;;;3.23;44.06;98905.47;4500472;31;20102;-81
2022/01/08 00:18:32;;;;;;;16.30;7.65;;;;;;;3.30;44.01;98900.97;4490292;31;20103;-80
2022/01/08 00:20:57;;;;;;;17.08;6.87;;;;;;;3.36;43.89;98898.22;4483069;32;20124;-80
2022/01/08 00:23:23;;;;;;;17.62;7.57;;;;;;;3.36;43.71;98898.22;4481555;31;20095;-80
2022/01/08 00:25:49;;;;;;;19.90;8.07;;;;;;;3.35;43.69;98892.16;4491607;31;20096;-80
2022/01/08 00:28:14;;;;;;;21.62;7.50;;;;;;;3.03;44.16;98895.47;4486151;31;20110;-80
2022/01/08 00:30:39;;;;;;;17.20;7.15;;;;;;;3.00;44.47;98899.94;4490908;31;20075;-76
2022/01/08 00:33:05;;;;;;;21.92;7.62;;;;;;;2.92;44.48;98895.75;4495534;31;20371;-82
2022/01/08 00:35:32;;;;;;;20.33;8.15;;;;;;;2.88;44.05;98896.69;4481865;31;20131;-84
2022/01/08 00:37:58;;;;;;;16.37;7.00;;;;;;;2.93;44.29;98886.19;4491882;31;20072;-81
2022/01/08 00:40:23;;;;;;;19.10;8.05;;;;;;;2.95;44.57;98881.78;4489273;31;20146;-82
2022/01/08 00:42:49;;;;;;;17.52;7.50;;;;;;;2.88;44.38;98877.62;4497886;31;20432;-82
2022/01/08 00:45:14;;;;;;;15.23;7.15;;;;;;;2.97;44.25;98876.56;4467141;31;20114;-83
2022/01/08 00:47:40;;;;;;;18.58;7.78;;;;;;;3.04;44.33;98883.34;4492456;31;20076;-82
2022/01/08 00:50:05;;;;;;;19.75;7.57;;;;;;;3.05;44.21;98879.84;4485667;31;20443;-83
2022/01/08 00:52:31;;;;;;;19.98;7.22;;;;;;;3.00;42.85;98869.56;4490005;31;20144;-83
2022/01/08 00:54:57;;;;;;;18.00;7.12;;;;;;;3.06;42.57;98863.34;4482397;32;20084;-83
2022/01/08 00:57:22;;;;;;;18.92;8.50;;;;;;;3.09;42.60;98865.87;4489866;31;20080;-80
2022/01/08 00:59:47;;;;;;;17.70;7.45;;;;;;;3.12;42.54;98855.41;4487160;32;20160;-82
2022/01/08 01:02:13;;;;;;;16.80;7.20;;;;;;;3.07;42.76;98867.66;4486527;32;20081;-79
2022/01/08 01:04:38;;;;;;;18.40;6.72;;;;;;;3.11;42.95;98862.34;4486430;32;20092;-80
2022/01/08 01:07:04;;;;;;;15.52;6.68;;;;;;;3.17;42.99;98853.56;4486214;32;20231;-79
2022/01/08 01:09:29;;;;;;;18.90;8.52;;;;;;;3.11;42.88;98851.06;4472134;32;20127;-79
2022/01/08 01:11:57;;;;;;;17.05;7.28;;;;;;;3.12;42.29;98850.19;4486492;32;20111;-79
2022/01/08 01:14:24;;;;;;;18.75;7.43;;;;;;;3.03;42.59;98847.78;4471916;32;20116;-79
2022/01/08 01:16:50;;;;;;;18.65;6.95;;;;;;;3.09;42.89;98837.22;4487361;32;20473;-79
2022/01/08 01:19:15;;;;;;;15.45;6.57;;;;;;;3.05;42.54;98828.66;4472868;32;20134;-80
2022/01/08 01:21:41;;;;;;;18.17;7.30;;;;;;;2.98;42.83;98831.44;4487251;32;20136;-79
2022/01/08 01:24:13;;;;;;;14.70;6.47;;;;;;;2.94;43.11;98831.50;4459824;32;20092;-79
2022/01/08 01:26:46;;;;;;;15.70;6.95;;;;;;;2.91;43.28;98817.72;4473782;32;20065;-79
2022/01/08 01:29:29;;;;;;;17.90;6.93;;;;;;;2.86;43.56;98819.53;4460724;32;20100;-79
2022/01/08 01:48:13;;;;;;;14.85;5.90;;;;;;;2.71;43.41;98802.56;4474981;32;20515;-79
2022/01/08 01:50:39;;;;;;;18.23;6.90;;;;;;;2.78;43.88;98800.66;4487057;32;20101;-79
2022/01/08 01:53:04;;;;;;;17.05;6.70;;;;;;;2.73;43.64;98796.44;4486957;32;20116;-79
2022/01/08 01:55:30;;;;;;;17.30;6.95;;;;;;;2.75;43.39;98794.66;4487005;32;20100;-79
2022/01/08 01:57:55;;;;;;;15.77;6.07;;;;;;;2.75;43.32;98786.00;4472650;32;20068;-79
2022/01/08 02:00:21;;;;;;;17.33;5.90;;;;;;;2.69;43.50;98799.16;4472675;32;20157;-79
2022/01/08 02:02:46;;;;;;;15.20;6.03;;;;;;;2.64;44.00;98794.03;4472997;32;20455;-79
2022/01/08 02:05:12;;;;;;;13.77;5.57;;;;;;;2.60;43.64;98796.75;4472912;32;20348;-79
2022/01/08 02:07:37;;;;;;;15.32;6.18;;;;;;;2.51;43.71;98797.78;4487159;32;20089;-79
2022/01/08 02:10:03;;;;;;;15.05;5.70;;;;;;;2.37;43.70;98796.34;4487169;32;20084;-79
2022/01/08 02:12:31;;;;;;;15.70;6.07;;;;;;;2.36;43.31;98789.44;4472820;32;20116;-79
2022/01/08 02:14:57;;;;;;;13.88;5.43;;;;;;;2.16;44.32;98784.66;4472652;32;20079;-79
2022/01/08 02:17:22;;;;;;;15.07;6.65;;;;;;;2.28;44.09;98778.34;4486614;32;20107;-79
2022/01/08 02:19:53;;;;;;;15.13;6.00;;;;;;;2.26;43.96;98777.53;4486778;32;20368;-79
2022/01/08 02:22:20;;;;;;;14.60;5.90;;;;;;;2.25;44.00;98777.56;4486875;32;20088;-79
2022/01/08 02:24:46;;;;;;;12.85;5.37;;;;;;;2.25;43.87;98777.56;4486197;32;20088;-79
2022/01/08 02:27:12;;;;;;;15.23;5.97;;;;;;;2.16;44.06;98770.78;4486062;32;20073;-79
2022/01/08 02:29:37;;;;;;;15.18;5.30;;;;;;;2.16;44.10;98769.06;4486641;32;20375;-79
2022/01/08 02:32:10;;;;;;;13.20;5.03;;;;;;;2.12;44.24;98767.41;4472478;32;20129;-79
2022/01/08 02:34:37;;;;;;;14.18;5.47;;;;;;;2.04;44.56;98766.72;4472755;32;20115;-79
2022/01/08 02:37:03;;;;;;;13.32;5.30;;;;;;;2.05;44.88;98764.97;4472477;32;20107;-79
2022/01/08 02:39:31;;;;;;;14.32;6.07;;;;;;;1.99;44.96;98773.75;4486889;32;20120;-79
2022/01/08 02:41:59;;;;;;;14.32;5.37;;;;;;;1.96;45.34;98766.87;4486886;32;20577;-79
2022/01/08 02:44:26;;;;;;;14.02;4.87;;;;;;;1.95;45.49;98769.50;4472660;32;20579;-79
2022/01/08 02:46:52;;;;;;;13.73;5.20;;;;;;;1.91;45.39;98765.25;4486509;32;20084;-79
2022/01/08 02:49:17;;;;;;;13.23;4.55;;;;;;;1.92;45.17;98766.97;4486382;32;20092;-79
2022/01/08 02:51:43;;;;;;;15.43;4.72;;;;;;;1.92;44.65;98766.97;4472156;32;20135;-79
2022/01/08 02:54:11;;;;;;;12.88;4.93;;;;;;;1.89;44.38;98772.22;4486415;32;20137;-79
2022/01/08 02:56:41;;;;;;;13.73;4.70;;;;;;;1.74;43.88;98766.44;4472121;32;20195;-79
2022/01/08 02:59:07;;;;;;;13.13;4.57;;;;;;;1.81;43.77;98764.56;4486287;32;20119;-79
2022/01/08 03:01:33;;;;;;;12.07;3.97;;;;;;;1.82;44.02;98768.03;4486249;32;20095;-79
2022/01/08 03:03:59;;;;;;;13.62;4.37;;;;;;;1.82;44.28;98755.91;4472041;32;20443;-79
2022/01/08 03:06:24;;;;;;;14.32;4.87;;;;;;;1.85;43.75;98754.97;4458840;32;20122;-79
2022/01/08 03:08:50;;;;;;;12.13;4.75;;;;;;;1.84;43.63;98753.28;4486035;32;20156;-79
2022/01/08 03:11:15;;;;;;;14.05;5.07;;;;;;;1.80;43.83;98757.69;4471871;32;20088;-78
2022/01/08 03:13:41;;;;;;;13.15;4.78;;;;;;;1.76;44.15;98756.03;4486053;32;20508;-78
2022/01/08 03:16:06;;;;;;;14.98;4.75;;;;;;;1.70;44.41;98763.91;4486029;32;20081;-79
2022/01/08 03:18:34;;;;;;;12.95;4.70;;;;;;;1.72;44.26;98756.94;4485983;32;20096;-79
2022/01/08 03:21:02;;;;;;;11.55;4.20;;;;;;;1.79;44.37;98752.50;4472108;32;20123;-79
2022/01/08 03:23:40;;;;;;;15.02;4.60;;;;;;;1.79;44.41;98747.31;4485805;32;20083;-79
2022/01/08 03:26:05;;;;;;;12.23;4.40;;;;;;;1.82;43.99;98760.25;4485914;32;20482;-78
2022/01/08 03:28:31;;;;;;;13.52;4.70;;;;;;;1.82;44.18;98760.25;4471509;32;20133;-79
2022/01/08 03:30:56;;;;;;;11.20;4.15;;;;;;;1.85;44.40;98761.03;4471772;32;20140;-80
2022/01/08 03:33:21;;;;;;;15.38;4.62;;;;;;;1.88;44.60;98754.94;4485853;32;20124;-79
2022/01/08 03:35:47;;;;;;;11.88;4.35;;;;;;;1.89;44.51;98760.09;4486028;32;20132;-79
2022/01/08 03:38:12;;;;;;;12.07;4.15;;;;;;;1.90;44.60;98760.94;4487555;32;20123;-79
2022/01/08 03:40:38;;;;;;;13.45;4.45;;;;;;;1.99;44.68;98765.09;4474003;32;20200;-79
2022/01/08 03:43:03;;;;;;;12.50;4.57;;;;;;;1.94;44.55;98755.66;4488192;32;20084;-79
2022/01/08 03:45:29;;;;;;;13.07;4.57;;;;;;;1.91;45.27;98753.13;4473974;32;20109;-79
2022/01/08 03:48:16;;;;;;;12.25;4.50;;;;;;;1.92;45.03;98760.03;4473818;32;20185;-79
2022/01/08 03:50:40;;;;;;;13.02;4.75;;;;;;;1.89;44.86;98767.03;4487917;32;20154;-79
2022/01/08 03:53:05;;;;;;;13.45;4.82;;;;;;;1.84;45.33;98772.31;4488042;32;20349;-79
2022/01/08 03:55:30;;;;;;;12.43;4.25;;;;;;;1.84;45.27;98774.06;4487795;32;20072;-79
2022/01/08 03:57:56;;;;;;;13.02;4.53;;;;;;;1.87;45.02;98774.84;4487784;32;20088;-79
2022/01/08 04:00:21;;;;;;;12.52;4.40;;;;;;;1.86;45.12;98774.91;4487831;32;20084;-79
2022/01/08 04:02:47;;;;;;;12.60;4.07;;;;;;;1.81;45.23;98774.13;4487780;32;20124;-79
2022/01/08 04:05:12;;;;;;;12.73;3.58;;;;;;;1.73;45.27;98775.09;4473572;32;20096;-79
2022/01/08 04:07:38;;;;;;;12.88;4.18;;;;;;;1.72;45.32;98770.81;4460368;32;20100;-79
2022/01/08 04:10:04;;;;;;;13.07;4.35;;;;;;;1.71;45.22;98771.69;4487801;32;20385;-79
2022/01/08 04:12:39;;;;;;;12.37;3.92;;;;;;;1.72;44.95;98763.03;4487826;32;20408;-80
2022/01/08 04:15:50;;;;;;;12.30;4.70;;;;;;;1.72;45.08;98751.75;4487762;32;20471;-80
2022/01/08 04:17:54;;;;;;;12.63;4.20;;;;;;;1.72;45.06;98759.56;4482949;32;20111;-77
2022/01/08 04:20:21;;;;;;;11.45;3.80;;;;;;;1.73;44.97;98748.28;4473485;32;20447;-77
2022/01/08 04:22:49;;;;;;;12.52;4.40;;;;;;;1.75;44.80;98749.97;4487417;32;20569;-77
2022/01/08 04:25:16;;;;;;;11.50;4.22;;;;;;;1.74;44.82;98745.66;4473741;32;20485;-78
2022/01/08 04:27:41;;;;;;;12.20;3.93;;;;;;;1.74;44.91;98737.88;4473407;32;20127;-77
2022/01/08 04:30:07;;;;;;;13.15;4.50;;;;;;;1.75;45.07;98739.56;4487540;32;20168;-77
2022/01/08 04:32:32;;;;;;;12.32;4.35;;;;;;;1.77;45.03;98737.78;4473371;32;20080;-77
2022/01/08 04:34:58;;;;;;;11.27;4.10;;;;;;;1.73;44.70;98736.16;4473366;32;20076;-78
2022/01/08 04:37:24;;;;;;;12.73;4.03;;;;;;;1.75;44.60;98729.19;4473219;32;20141;-77
2022/01/08 04:39:49;;;;;;;15.52;5.03;;;;;;;1.81;44.70;98725.59;4473329;32;20142;-77
2022/01/08 04:42:14;;;;;;;11.70;4.53;;;;;;;1.82;44.86;98718.69;4473281;32;20099;-77
2022/01/08 04:44:40;;;;;;;13.15;4.35;;;;;;;1.82;45.04;98714.34;4487570;32;20088;-78
2022/01/08 04:47:05;;;;;;;13.52;4.12;;;;;;;1.89;44.79;98721.13;4487388;32;20115;-77
2022/01/08 04:49:31;;;;;;;13.93;4.32;;;;;;;1.77;44.78;98717.03;4486727;32;20108;-77
2022/01/08 04:51:57;;;;;;;11.68;4.70;;;;;;;1.75;44.71;98704.97;4473226;32;20428;-77
2022/01/08 04:54:22;;;;;;;12.93;3.92;;;;;;;1.77;43.87;98706.63;4473351;32;20076;-77
2022/01/08 04:56:47;;;;;;;12.00;3.92;;;;;;;1.73;44.46;98702.41;4487404;32;20462;-76
2022/01/08 04:59:13;;;;;;;12.80;4.53;;;;;;;1.80;44.72;98703.13;4487451;32;20084;-76
2022/01/08 05:01:38;;;;;;;11.93;3.75;;;;;;;1.77;44.78;98714.41;4473090;32;20083;-76
2022/01/08 05:04:04;;;;;;;11.88;4.03;;;;;;;1.76;44.75;98711.88;4473227;32;20162;-76
2022/01/08 05:06:30;;;;;;;15.52;4.68;;;;;;;1.77;44.85;98706.63;4473265;32;20479;-76
2022/01/08 05:08:55;;;;;;;14.23;4.72;;;;;;;1.77;44.73;98701.44;4473130;32;20523;-77
2022/01/08 05:11:21;;;;;;;12.37;4.70;;;;;;;1.73;44.46;98699.78;4487312;32;20084;-77
2022/01/08 05:13:46;;;;;;;14.25;4.70;;;;;;;1.77;44.31;98692.81;4487294;32;20071;-77
2022/01/08 05:16:12;;;;;;;13.38;4.53;;;;;;;1.81;44.41;98698.78;4473086;32;20107;-77
2022/01/08 05:18:38;;;;;;;14.07;4.50;;;;;;;1.87;44.55;98706.44;4487233;32;20081;-77
2022/01/08 05:21:17;;;;;;;14.27;4.45;;;;;;;1.92;44.72;98702.03;4487194;32;20448;-77
2022/01/08 05:23:42;;;;;;;12.25;4.22;;;;;;;1.97;45.11;98702.78;4487192;32;20115;-77
2022/01/08 05:26:07;;;;;;;10.90;4.10;;;;;;;1.99;44.88;98694.94;4487243;32;20119;-77
2022/01/08 05:28:33;;;;;;;12.70;4.60;;;;;;;1.92;44.64;98705.47;4487270;32;20084;-77
2022/01/08 05:30:58;;;;;;;14.60;4.68;;;;;;;2.05;43.63;98710.41;4487258;32;20436;-77
2022/01/08 05:33:24;;;;;;;13.95;4.70;;;;;;;2.10;43.75;98708.56;4472880;32;20584;-77
2022/01/08 05:35:49;;;;;;;14.07;4.00;;;;;;;2.14;44.09;98713.69;4487160;32;20463;-79
2022/01/08 05:38:15;;;;;;;14.13;4.62;;;;;;;2.22;44.14;98707.44;4487044;32;20084;-80
2022/01/08 05:40:40;;;;;;;13.32;4.15;;;;;;;2.24;44.19;98713.47;4472958;32;20088;-79
2022/01/08 05:43:05;;;;;;;14.45;4.70;;;;;;;2.25;44.28;98708.22;4472884;32;20140;-78
2022/01/08 05:45:31;;;;;;;13.35;5.20;;;;;;;2.23;44.26;98701.38;4472806;32;20467;-79
2022/01/08 05:47:56;;;;;;;15.43;4.68;;;;;;;2.22;44.24;98703.13;4472762;32;20452;-79
2022/01/08 05:50:22;;;;;;;12.88;4.40;;;;;;;2.24;44.11;98700.47;4487132;32;20080;-79
2022/01/08 05:52:48;;;;;;;14.32;4.65;;;;;;;2.21;43.52;98701.41;4472804;32;20140;-79
2022/01/08 05:55:14;;;;;;;12.35;4.87;;;;;;;2.17;43.76;98703.19;4487086;32;20091;-79
2022/01/08 05:57:40;;;;;;;14.20;5.07;;;;;;;2.14;44.20;98695.50;4472623;32;20123;-79
2022/01/08 06:00:07;;;;;;;14.32;4.90;;;;;;;2.14;44.60;98699.81;4472670;32;20118;-79
2022/01/08 06:02:33;;;;;;;15.50;4.63;;;;;;;2.13;45.19;98711.09;4472826;32;20111;-79
2022/01/08 06:04:58;;;;;;;14.80;5.32;;;;;;;2.14;45.46;98718.00;4487032;32;20092;-78
2022/01/08 06:07:24;;;;;;;13.10;4.12;;;;;;;2.13;45.39;98724.94;4487009;32;20092;-79
2022/01/08 06:09:49;;;;;;;14.27;4.70;;;;;;;2.14;45.15;98724.06;4486935;32;20088;-78
2022/01/08 06:12:14;;;;;;;12.65;4.32;;;;;;;2.15;44.53;98732.72;4472663;32;20085;-78
2022/01/08 06:14:40;;;;;;;16.30;5.00;;;;;;;2.12;44.25;98732.78;4472622;32;20115;-79
2022/01/08 06:17:05;;;;;;;12.05;4.90;;;;;;;2.07;44.15;98739.84;4472600;32;20119;-79
2022/01/08 06:19:32;;;;;;;12.63;5.00;;;;;;;1.99;44.16;98741.72;4459503;32;20088;-79
2022/01/08 06:21:58;;;;;;;13.43;4.65;;;;;;;1.92;44.34;98741.84;4486757;32;20436;-78
2022/01/08 06:24:24;;;;;;;13.80;5.18;;;;;;;1.85;44.77;98744.59;4486635;32;20096;-79
2022/01/08 06:26:49;;;;;;;12.98;4.85;;;;;;;1.86;44.66;98741.97;4472601;32;20345;-79
2022/01/08 06:29:15;;;;;;;14.43;4.87;;;;;;;1.83;44.59;98751.56;4486531;32;20080;-78
2022/01/08 06:31:40;;;;;;;15.85;5.37;;;;;;;1.74;44.92;98753.47;4472388;32;20186;-78
2022/01/08 06:34:06;;;;;;;13.02;4.82;;;;;;;1.75;45.52;98744.75;4486777;32;20333;-78
2022/01/08 06:36:31;;;;;;;12.65;5.18;;;;;;;1.74;45.80;98743.06;4486592;32;20076;-78
2022/01/08 06:38:57;;;;;;;13.77;4.75;;;;;;;1.76;45.62;98743.91;4486553;32;20085;-78
2022/01/08 06:41:22;;;;;;;16.70;5.20;;;;;;;1.74;45.60;98737.03;4489623;31;20068;-76
2022/01/08 06:43:47;;;;;;;13.40;4.68;;;;;;;1.68;45.61;98743.19;4491746;31;20137;-77
2022/01/08 06:46:13;;;;;;;14.82;5.00;;;;;;;1.70;45.54;98737.94;4486646;32;20084;-78
2022/01/08 06:48:40;;;;;;;13.55;5.07;;;;;;;1.64;45.54;98738.06;4486460;31;20120;-78
2022/01/08 06:51:05;;;;;;;13.80;4.62;;;;;;;1.69;45.42;98744.03;4486457;31;20124;-78
2022/01/08 06:53:31;;;;;;;13.23;4.68;;;;;;;1.69;45.32;98739.69;4486331;31;20088;-78
2022/01/08 06:55:56;;;;;;;13.25;4.60;;;;;;;1.73;45.35;98732.72;4486333;31;20363;-79
2022/01/08 06:58:24;;;;;;;16.10;4.70;;;;;;;1.74;45.27;98731.84;4486318;31;20121;-79
2022/01/08 07:00:50;;;;;;;;;;;;;;;1.74;45.31;98732.69;4486639;31;20081;-79
2022/01/08 07:03:15;;;;;;;12.82;4.60;;;;;;;1.72;45.52;98729.25;4486349;31;19983;-79
2022/01/08 07:05:41;;;;;;;15.35;4.95;;;;;;;1.63;45.77;98726.00;4486245;31;20141;-79
2022/01/08 07:08:06;;;;;;;13.62;5.18;;;;;;;1.68;45.68;98722.44;4486143;32;20128;-79
2022/01/08 07:10:32;;;;;;;13.23;5.37;;;;;;;1.73;45.50;98722.31;4484994;32;20076;-79
2022/01/08 07:12:58;;;;;;;13.10;5.15;;;;;;;1.67;45.55;98725.88;4486412;32;20116;-79
2022/01/08 07:15:24;;;;;;;14.35;4.78;;;;;;;1.67;45.62;98727.66;4487029;32;20123;-79
2022/01/08 07:17:49;;;;;;;13.18;4.97;;;;;;;1.71;45.91;98716.31;4486907;32;20100;-79
2022/01/08 07:20:14;;;;;;;13.13;4.57;;;;;;;1.75;45.90;98711.00;4488113;32;20107;-80
2022/01/08 07:22:40;;;;;;;14.95;5.00;;;;;;;1.81;45.80;98701.38;4487942;31;20338;-84
2022/01/08 07:25:07;;;;;;;13.60;5.10;;;;;;;1.90;45.73;98706.41;4488122;31;20117;-83
2022/01/08 07:27:33;;;;;;;14.30;4.87;;;;;;;1.96;45.47;98707.13;4488217;31;20084;-84
2022/01/08 07:30:04;;;;;;;12.90;4.70;;;;;;;2.01;45.24;98703.56;4488064;31;20144;-82
2022/01/08 07:32:30;;;;;;;15.43;4.80;;;;;;;2.11;44.70;98702.50;4488132;31;20561;-81
2022/01/08 07:34:56;;;;;;;12.80;5.07;;;;;;;2.11;44.74;98705.94;4488181;31;20084;-81
2022/01/08 07:37:21;;;;;;;15.00;4.82;;;;;;;2.17;44.79;98691.97;4473487;32;20140;-83
2022/01/08 07:39:47;;;;;;;17.40;5.45;;;;;;;2.24;44.84;98695.25;4486754;32;20081;-82
2022/01/08 07:42:12;;;;;;;13.75;4.60;;;;;;;2.30;44.46;98701.19;4487962;31;20150;-81
2022/01/08 07:44:39;;;;;;;13.38;4.40;;;;;;;2.36;44.38;98700.19;4487984;31;20088;-83
2022/01/08 07:47:05;;;;;;;12.90;4.77;;;;;;;2.46;43.94;98688.69;4487939;31;20160;-82
2022/01/08 07:49:30;;;;;;;13.70;4.75;;;;;;;2.49;43.41;98688.63;4473533;32;20136;-81
2022/01/08 07:51:56;;;;;;;12.48;4.43;;;;;;;2.56;43.22;98692.78;4487849;31;20602;-80
2022/01/08 07:54:21;;;;;;;14.60;4.50;;;;;;;2.60;43.19;98690.97;4487892;31;20088;-79
2022/01/08 07:56:46;;;;;;;13.52;4.55;;;;;;;2.63;43.16;98682.25;4487837;31;20093;-80
2022/01/08 07:59:12;;;;;;;13.82;4.85;;;;;;;2.65;43.17;98683.06;4475958;32;20095;-80
2022/01/08 08:01:37;;;;;;;14.48;5.05;;;;;;;2.69;43.00;98682.94;4466412;32;20143;-78
2022/01/08 08:04:03;;;;;;;14.45;4.55;;;;;;;2.72;42.25;98682.87;4487696;32;20436;-80
2022/01/08 08:06:28;;;;;;;12.88;4.72;;;;;;;2.81;41.27;98679.19;4498432;31;20100;-79
2022/01/08 08:08:54;;;;;;;12.93;5.22;;;;;;;2.83;41.61;98680.00;4475213;31;20080;-87
2022/01/08 08:11:19;;;;;;;16.10;5.78;;;;;;;2.90;43.27;98672.91;4485201;32;20136;-82
2022/01/08 08:13:44;;;;;;;15.30;5.60;;;;;;;2.98;44.32;98672.72;4493569;31;20400;-84
2022/01/08 08:16:10;;;;;;;16.77;6.12;;;;;;;2.97;44.48;98678.78;4481234;31;20401;-81
2022/01/08 08:18:35;;;;;;;15.88;5.82;;;;;;;2.88;43.65;98680.75;4491123;31;20084;-80
2022/01/08 08:21:01;;;;;;;14.95;5.57;;;;;;;2.95;44.54;98679.72;4500303;31;20151;-81
2022/01/08 08:23:26;;;;;;;17.33;6.22;;;;;;;3.01;43.61;98670.00;4490351;31;20118;-81
2022/01/08 08:25:51;;;;;;;18.58;7.47;;;;;;;3.06;43.92;98662.94;4495916;31;20112;-81
2022/01/08 08:28:17;;;;;;;16.75;6.32;;;;;;;3.09;43.85;98660.25;4496687;31;20080;-82
2022/01/08 08:30:42;;;;;;;16.92;6.85;;;;;;;2.83;43.07;98656.59;4490335;31;20104;-81
2022/01/08 08:33:08;;;;;;;17.52;6.35;;;;;;;2.92;43.01;98660.72;4500235;31;20415;-82
2022/01/08 08:35:33;;;;;;;15.80;5.87;;;;;;;2.88;42.70;98662.53;4477844;31;20333;-81
2022/01/08 08:37:59;;;;;;;15.13;5.75;;;;;;;2.82;42.68;98654.91;4480642;32;20080;-82
2022/01/08 09:36:38;;;;;;;17.17;6.87;;;;;;;2.15;45.74;98633.97;4473256;32;288457;-82
2022/01/08 09:39:04;;;;;;;17.12;7.05;;;;;;;2.71;43.61;98626.53;4483200;32;20108;-82
2022/01/08 09:41:30;;;;;;;16.67;5.87;;;;;;;3.02;42.01;98620.53;4468854;32;20088;-82
2022/01/08 09:43:55;;;;;;;15.27;6.65;;;;;;;3.28;41.28;98609.44;4468763;32;20081;-82
2022/01/08 09:46:21;;;;;;;18.52;6.65;;;;;;;3.42;40.88;98608.16;4468854;32;20115;-82
2022/01/08 09:48:48;;;;;;;16.10;6.57;;;;;;;3.50;40.81;98614.03;4483095;32;20119;-82
2022/01/08 09:51:15;;;;;;;16.77;6.12;;;;;;;3.54;40.65;98610.44;4483239;32;20099;-82
2022/01/08 09:53:40;;;;;;;15.02;5.93;;;;;;;3.59;40.41;98605.91;4483260;32;20076;-82
2022/01/08 09:56:05;;;;;;;16.42;6.05;;;;;;;3.72;40.28;98599.44;4483253;32;20360;-82
2022/01/08 09:58:32;;;;;;;17.77;7.22;;;;;;;3.81;39.86;98600.09;4469012;32;20084;-82
2022/01/08 10:00:57;;;;;;;18.42;7.28;;;;;;;3.82;39.97;98594.81;4483276;32;20102;-82
2022/01/08 10:03:26;;;;;;;16.48;6.05;;;;;;;3.91;40.06;98604.13;4483224;32;20111;-83
2022/01/08 10:05:58;;;;;;;14.95;6.37;;;;;;;4.05;39.73;98598.47;4469087;32;20116;-82
2022/01/08 10:08:29;;;;;;;16.08;6.43;;;;;;;4.12;40.09;98593.03;4469094;32;20216;-82
2022/01/08 10:11:06;;;;;;;15.23;5.93;;;;;;;4.19;39.17;98593.69;4468722;32;20119;-82
2022/01/08 10:13:39;;;;;;;15.50;7.10;;;;;;;4.28;39.25;98585.56;4468698;32;20140;-82
2022/01/08 10:18:53;;;;;;;16.95;6.07;;;;;;;4.41;38.73;98582.56;4483057;32;20114;-82
2022/01/08 10:21:20;;;;;;;17.70;6.35;;;;;;;4.31;38.87;98582.03;4468732;32;20101;-83
2022/01/08 10:24:08;;;;;;;16.98;6.93;;;;;;;4.25;39.29;98577.84;4482722;32;20100;-83
2022/01/08 10:26:37;;;;;;;17.42;6.82;;;;;;;4.23;39.30;98579.66;4468841;32;20455;-82
2022/01/08 10:29:06;;;;;;;16.30;6.70;;;;;;;4.44;39.00;98569.41;4482853;32;20388;-83
2022/01/08 10:31:38;;;;;;;18.05;7.45;;;;;;;4.51;38.98;98569.16;4482752;32;20096;-83
2022/01/08 10:34:11;;;;;;;16.83;6.90;;;;;;;4.58;38.59;98568.94;4482817;32;20450;-83
2022/01/08 10:37:04;;;;;;;15.63;7.00;;;;;;;4.63;38.61;98567.87;4476295;32;20122;-83
2022/01/08 10:39:35;;;;;;;17.95;7.20;;;;;;;4.68;38.77;98567.75;4472215;32;20132;-82
2022/01/08 10:42:08;;;;;;;18.20;7.70;;;;;;;4.73;38.44;98565.81;4458136;32;20474;-82
2022/01/08 10:44:33;;;;;;;15.90;7.03;;;;;;;4.67;38.69;98564.25;4457994;32;20103;-83
2022/01/08 10:47:12;;;;;;;18.92;7.47;;;;;;;4.76;38.26;98563.09;4458032;32;20100;-82
2022/01/08 10:49:42;;;;;;;19.55;7.90;;;;;;;4.66;38.30;98575.63;4458426;32;20123;-83
2022/01/08 10:52:16;;;;;;;18.10;7.93;;;;;;;4.62;38.51;98568.81;4457947;32;20493;-82
2022/01/08 10:54:43;;;;;;;18.15;7.57;;;;;;;4.55;38.88;98569.06;4445060;32;20150;-82
2022/01/08 10:57:12;;;;;;;17.80;7.62;;;;;;;4.57;39.06;98577.69;4458291;32;20108;-82
2022/01/08 10:59:38;;;;;;;21.98;7.80;;;;;;;4.48;39.10;98569.28;4458426;32;20527;-82
2022/01/08 11:02:14;;;;;;;17.95;7.30;;;;;;;4.53;39.34;98567.34;4458199;32;20081;-83
2022/01/08 11:04:40;;;;;;;21.02;8.45;;;;;;;4.40;39.65;98573.88;4472176;32;20072;-83
2022/01/08 11:07:25;;;;;;;16.95;7.57;;;;;;;4.55;39.30;98569.06;4472146;32;20127;-83
2022/01/08 11:09:53;;;;;;;19.48;7.85;;;;;;;4.63;38.98;98572.25;4472142;32;20110;-83
2022/01/08 11:12:25;;;;;;;17.42;7.60;;;;;;;4.78;38.29;98571.72;4472053;32;20111;-82
2022/01/08 11:17:25;;;;;;;19.08;7.53;;;;;;;4.77;38.46;98570.03;4471916;32;20439;-82
2022/01/08 11:20:01;;;;;;;19.42;8.57;;;;;;;4.83;38.35;98563.72;4457876;32;20495;-82
2022/01/08 11:22:29;;;;;;;21.33;8.15;;;;;;;4.84;38.32;98558.47;4472095;32;20427;-82
2022/01/08 11:25:01;;;;;;;19.12;8.73;;;;;;;4.71;38.49;98559.78;4471908;32;20085;-82
2022/01/08 11:27:37;;;;;;;19.55;8.23;;;;;;;4.82;38.48;98557.66;4457680;32;20101;-83
2022/01/08 11:30:27;;;;;;;18.12;8.20;;;;;;;4.71;38.89;98547.63;4471983;32;20107;-82
2022/01/08 11:32:55;;;;;;;;;;;;;;;4.74;39.06;98554.47;4472209;32;20076;-83
2022/01/08 11:35:22;;;;;;;21.70;8.00;;;;;;;4.80;39.00;98554.25;4471727;32;19972;-83
2022/01/08 11:37:49;;;;;;;18.20;7.78;;;;;;;4.89;38.47;98559.16;4471793;32;20211;-83
2022/01/08 11:40:17;;;;;;;19.02;8.07;;;;;;;4.91;38.56;98548.69;4457733;32;20120;-85
2022/01/08 11:42:43;;;;;;;17.98;7.57;;;;;;;5.02;38.49;98548.28;4457589;32;20089;-83
2022/01/08 11:45:12;;;;;;;18.92;7.78;;;;;;;5.01;38.52;98542.22;4457459;32;20398;-83
2022/01/08 11:47:41;;;;;;;21.27;8.23;;;;;;;5.10;38.33;98554.09;4470690;32;20440;-83
2022/01/08 11:50:07;;;;;;;15.82;7.60;;;;;;;4.95;38.50;98552.87;4457519;32;20475;-84
2022/01/08 11:52:32;;;;;;;17.95;8.10;;;;;;;5.08;38.52;98542.84;4457552;32;20107;-83
2022/01/08 11:54:58;;;;;;;17.92;8.00;;;;;;;5.22;38.65;98544.97;4471651;32;20386;-84
2022/01/08 11:57:28;;;;;;;18.92;8.05;;;;;;;5.34;37.92;98541.88;4471624;32;20125;-83
2022/01/08 11:59:57;;;;;;;18.75;7.28;;;;;;;5.32;37.86;98544.56;4471751;32;20595;-84
2022/01/08 12:02:38;;;;;;;22.02;8.10;;;;;;;5.25;37.88;98544.84;4457789;32;20108;-83
2022/01/08 12:05:04;;;;;;;17.98;7.80;;;;;;;5.39;37.48;98529.53;4471562;32;20072;-83
2022/01/08 12:07:35;;;;;;;17.70;7.10;;;;;;;5.32;37.45;98528.03;4457469;32;20199;-84
2022/01/08 12:10:17;;;;;;;19.65;6.97;;;;;;;5.29;37.56;98528.13;4457418;32;20170;-83
2022/01/08 12:13:09;;;;;;;17.05;7.40;;;;;;;5.35;37.35;98517.47;4471668;32;20158;-83
2022/01/08 12:15:41;;;;;;;20.25;8.32;;;;;;;5.37;37.50;98513.06;4454014;32;20081;-83
2022/01/08 12:18:17;;;;;;;18.12;7.80;;;;;;;5.35;37.43;98514.87;4471463;32;20100;-83
2022/01/08 12:20:43;;;;;;;18.42;7.75;;;;;;;5.30;37.40;98514.19;4457404;32;20111;-83
2022/01/08 12:23:30;;;;;;;17.40;7.12;;;;;;;5.36;37.29;98510.50;4471477;32;20363;-83
2022/01/08 12:25:56;;;;;;;18.62;7.80;;;;;;;5.44;36.96;98498.81;4457362;32;20149;-83
2022/01/08 12:28:47;;;;;;;19.20;8.38;;;;;;;5.66;36.83;98495.38;4457245;32;20130;-83
2022/01/08 12:31:49;;;;;;;16.62;7.55;;;;;;;5.74;36.30;98487.22;4471400;32;20084;-83
2022/01/08 12:34:32;;;;;;;19.15;7.68;;;;;;;5.79;36.20;98483.53;4471523;32;20104;-83
2022/01/08 12:36:59;;;;;;;17.95;7.22;;;;;;;5.69;35.93;98479.59;4457386;32;20146;-83
2022/01/08 12:39:48;;;;;;;19.33;7.43;;;;;;;5.62;36.05;98478.13;4457053;32;20883;-83
2022/01/08 12:42:20;;;;;;;18.80;7.43;;;;;;;5.68;35.82;98477.91;4471383;32;20145;-83
2022/01/08 12:44:59;;;;;;;17.77;7.85;;;;;;;5.78;35.71;98475.78;4457057;32;20171;-83
2022/01/08 12:47:46;;;;;;;17.10;7.30;;;;;;;5.76;35.96;98482.81;4471316;32;20084;-83
2022/01/08 12:50:29;;;;;;;17.65;7.30;;;;;;;5.80;35.75;98479.16;4471308;32;20116;-83
2022/01/08 12:53:07;;;;;;;16.05;6.93;;;;;;;5.83;35.59;98471.19;4471155;32;20196;-83
2022/01/08 12:55:32;;;;;;;17.77;7.22;;;;;;;5.87;35.14;98465.78;4471257;32;20093;-83